Strona główna
METAR-TAF:

METAR-TAF

Lotnisko :

Konakry, Gwinea

Port lotniczy Konakry

Szerokość geograficzna: 09-34N, Długość geograficzna: 013-37W, wysokość: 26 m

Aktualna obserwacja pogody

Raport powstał 2 godziny i 2 minut temu, godzina 16:00 UTC
Wiatr 8 kt od zachód
Temperatura 31°C
Wilgotność 52%
Ciśnienie 1010 hPa
Widzialność: 5000 m
zmętnienie

METAR: GUCY 171600Z 27008KT 5000 HZ NSC 31/20 Q1010 NOSIG

czas: 18:02 (18:02 UTC)

Prognoza

Raport powstał 7 godziny i 2 minut temu, godzina 11:00 UTC
Prognoza ważna od 17 godzina 12 UTC do 18 godzina 18 UTC
Wiatr 4 kt od północny zachód
Widzialność: 5000 m
zmętnienie
Stopniowe zmiany
od 17 godzina 18 UTC do 17 godzina 22 UTC
Widzialność: 4000 m
zmętnienie
Przejściowo
od 18 godzina 04 UTC do 18 godzina 09 UTC
Wiatr 2 kt z kierunków zmiennych
Widzialność: 2500 m
Mało chmury na wysokości 1500 ft
zamglenie

TAF: GUCY 171100Z 1712/1818 32004KT 5000 HZ NSC BECMG 1718/1722 4000 HZ TEMPO 1804/1809 VRB02KT 2500 BR FEW015

Obserwacja i prognoza pogody dla ponad 4000 lotnisk (raport METAR i TAF).

Dostępne stacje oznaczono żółtymi i czerwonymi punktami na mapie.

Najedź kursorem aby zobaczyć nazwę stacji.

Kliknij aby zobaczyć obserwacje i prognozy pogody.

Aby zmienić mapę: kliknij na zielony przycisk z czarnym krzyżykiem, aby powiększyć; na zielony przycisk z myślnikiem, aby pomniejszyć; na zielone strzałki, aby przejść do map sąsiednich.


METAR-TAF: